sensor_id;sensor_type;location;lat;lon;timestamp;pressure;altitude;pressure_sealevel;temperature;humidity
52307;BME280;38249;48.920;12.882;2022-08-19T00:00:50;96305.75;;;25.26;54.90
52307;BME280;38249;48.920;12.882;2022-08-19T00:03:16;96303.19;;;25.12;54.69
52307;BME280;38249;48.920;12.882;2022-08-19T00:05:43;96306.78;;;25.05;54.99
52307;BME280;38249;48.920;12.882;2022-08-19T00:08:10;96315.81;;;25.02;55.20
52307;BME280;38249;48.920;12.882;2022-08-19T00:10:36;96324.50;;;24.97;55.22
52307;BME280;38249;48.920;12.882;2022-08-19T00:13:03;96327.66;;;24.95;55.23
52307;BME280;38249;48.920;12.882;2022-08-19T00:15:30;96340.28;;;24.85;55.27
52307;BME280;38249;48.920;12.882;2022-08-19T00:17:58;96351.13;;;24.96;55.21
52307;BME280;38249;48.920;12.882;2022-08-19T00:20:24;96360.69;;;24.81;55.31
52307;BME280;38249;48.920;12.882;2022-08-19T00:22:51;96381.47;;;24.75;55.61
52307;BME280;38249;48.920;12.882;2022-08-19T00:25:18;96408.81;;;24.82;55.91
52307;BME280;38249;48.920;12.882;2022-08-19T00:27:45;96409.28;;;24.73;55.61
52307;BME280;38249;48.920;12.882;2022-08-19T00:30:12;96410.03;;;24.81;55.55
52307;BME280;38249;48.920;12.882;2022-08-19T00:32:39;96430.63;;;24.96;55.34
52307;BME280;38249;48.920;12.882;2022-08-19T00:35:08;96432.81;;;25.16;54.85
52307;BME280;38249;48.920;12.882;2022-08-19T00:37:35;96431.00;;;24.98;54.81
52307;BME280;38249;48.920;12.882;2022-08-19T00:40:06;96430.00;;;25.23;54.78
52307;BME280;38249;48.920;12.882;2022-08-19T00:42:33;96431.75;;;25.02;54.72
52307;BME280;38249;48.920;12.882;2022-08-19T00:44:59;96432.50;;;25.06;55.36
52307;BME280;38249;48.920;12.882;2022-08-19T00:47:26;96448.50;;;25.15;55.33
52307;BME280;38249;48.920;12.882;2022-08-19T00:49:56;96443.22;;;25.35;54.81
52307;BME280;38249;48.920;12.882;2022-08-19T00:52:28;96446.28;;;25.45;54.64
52307;BME280;38249;48.920;12.882;2022-08-19T00:54:56;96440.16;;;25.26;55.08
52307;BME280;38249;48.920;12.882;2022-08-19T00:57:27;96434.94;;;25.39;55.13
52307;BME280;38249;48.920;12.882;2022-08-19T00:59:55;96422.09;;;25.32;55.20
52307;BME280;38249;48.920;12.882;2022-08-19T01:02:23;96435.44;;;25.30;55.26
52307;BME280;38249;48.920;12.882;2022-08-19T01:04:50;96420.16;;;25.29;55.49
52307;BME280;38249;48.920;12.882;2022-08-19T01:07:17;96424.38;;;25.41;55.21
52307;BME280;38249;48.920;12.882;2022-08-19T01:09:45;96417.97;;;25.51;55.40
52307;BME280;38249;48.920;12.882;2022-08-19T01:12:12;96414.47;;;25.47;55.26
52307;BME280;38249;48.920;12.882;2022-08-19T01:14:40;96407.69;;;25.59;55.43
52307;BME280;38249;48.920;12.882;2022-08-19T01:17:07;96413.13;;;25.63;55.04
52307;BME280;38249;48.920;12.882;2022-08-19T01:19:37;96417.75;;;25.69;54.96
52307;BME280;38249;48.920;12.882;2022-08-19T01:22:11;96407.44;;;25.80;54.89
52307;BME280;38249;48.920;12.882;2022-08-19T01:24:40;96395.75;;;25.73;55.33
52307;BME280;38249;48.920;12.882;2022-08-19T01:27:07;96385.34;;;25.60;55.23
52307;BME280;38249;48.920;12.882;2022-08-19T01:29:37;96374.53;;;25.77;55.20
52307;BME280;38249;48.920;12.882;2022-08-19T01:32:04;96359.75;;;25.67;55.70
52307;BME280;38249;48.920;12.882;2022-08-19T01:34:31;96355.97;;;25.57;55.52
52307;BME280;38249;48.920;12.882;2022-08-19T01:36:59;96380.66;;;25.57;55.90
52307;BME280;38249;48.920;12.882;2022-08-19T01:39:27;96387.47;;;25.46;56.03
52307;BME280;38249;48.920;12.882;2022-08-19T01:41:55;96407.75;;;25.52;55.93
52307;BME280;38249;48.920;12.882;2022-08-19T01:44:22;96418.13;;;25.37;56.08
52307;BME280;38249;48.920;12.882;2022-08-19T01:46:50;96423.88;;;25.50;55.85
52307;BME280;38249;48.920;12.882;2022-08-19T01:49:19;96432.00;;;25.60;55.68
52307;BME280;38249;48.920;12.882;2022-08-19T01:51:47;96431.69;;;25.51;55.78
52307;BME280;38249;48.920;12.882;2022-08-19T01:54:17;96424.47;;;25.65;55.77
52307;BME280;38249;48.920;12.882;2022-08-19T01:56:44;96415.28;;;25.48;55.74
52307;BME280;38249;48.920;12.882;2022-08-19T01:59:14;96423.66;;;25.68;55.74
52307;BME280;38249;48.920;12.882;2022-08-19T02:01:42;96426.59;;;25.50;55.94
52307;BME280;38249;48.920;12.882;2022-08-19T02:04:09;96425.78;;;25.53;55.94
52307;BME280;38249;48.920;12.882;2022-08-19T02:06:35;96425.69;;;25.60;55.88
52307;BME280;38249;48.920;12.882;2022-08-19T02:09:03;96429.16;;;25.68;55.66
52307;BME280;38249;48.920;12.882;2022-08-19T02:11:32;96424.31;;;25.79;55.61
52307;BME280;38249;48.920;12.882;2022-08-19T02:14:00;96429.41;;;25.80;55.68
52307;BME280;38249;48.920;12.882;2022-08-19T02:16:29;96433.78;;;25.74;55.46
52307;BME280;38249;48.920;12.882;2022-08-19T02:18:56;96429.69;;;25.55;55.70
52307;BME280;38249;48.920;12.882;2022-08-19T02:21:26;96435.97;;;25.56;55.70
52307;BME280;38249;48.920;12.882;2022-08-19T02:23:53;96427.78;;;25.49;55.92
52307;BME280;38249;48.920;12.882;2022-08-19T02:26:20;96414.47;;;25.51;56.00
52307;BME280;38249;48.920;12.882;2022-08-19T02:28:47;96416.41;;;25.50;55.96
52307;BME280;38249;48.920;12.882;2022-08-19T02:31:17;96402.81;;;25.74;55.76
52307;BME280;38249;48.920;12.882;2022-08-19T02:33:47;96399.19;;;25.80;55.79
52307;BME280;38249;48.920;12.882;2022-08-19T02:36:15;96402.44;;;25.72;55.93
52307;BME280;38249;48.920;12.882;2022-08-19T02:38:42;96415.53;;;25.60;55.74
52307;BME280;38249;48.920;12.882;2022-08-19T02:41:13;96415.38;;;25.71;55.84
52307;BME280;38249;48.920;12.882;2022-08-19T02:43:40;96410.97;;;25.47;56.18
52307;BME280;38249;48.920;12.882;2022-08-19T02:46:15;96395.50;;;25.60;56.24
52307;BME280;38249;48.920;12.882;2022-08-19T02:48:43;96393.84;;;25.35;56.59
52307;BME280;38249;48.920;12.882;2022-08-19T02:51:16;96395.16;;;25.58;56.19
52307;BME280;38249;48.920;12.882;2022-08-19T02:53:42;96390.41;;;25.24;56.64
52307;BME280;38249;48.920;12.882;2022-08-19T02:56:10;96383.06;;;25.14;56.88
52307;BME280;38249;48.920;12.882;2022-08-19T02:58:36;96384.88;;;24.89;57.47
52307;BME280;38249;48.920;12.882;2022-08-19T03:01:03;96396.25;;;24.88;57.25
52307;BME280;38249;48.920;12.882;2022-08-19T03:03:29;96400.09;;;24.94;57.33
52307;BME280;38249;48.920;12.882;2022-08-19T03:06:08;96411.56;;;25.23;57.24
52307;BME280;38249;48.920;12.882;2022-08-19T03:08:37;96434.41;;;25.13;57.26
52307;BME280;38249;48.920;12.882;2022-08-19T03:11:04;96436.50;;;24.95;57.40
52307;BME280;38249;48.920;12.882;2022-08-19T03:13:31;96446.69;;;24.98;57.68
52307;BME280;38249;48.920;12.882;2022-08-19T03:15:58;96453.06;;;24.84;57.87
52307;BME280;38249;48.920;12.882;2022-08-19T03:18:24;96460.06;;;24.88;57.68
52307;BME280;38249;48.920;12.882;2022-08-19T03:20:52;96464.66;;;25.02;57.52
52307;BME280;38249;48.920;12.882;2022-08-19T03:23:20;96465.47;;;24.99;57.53
52307;BME280;38249;48.920;12.882;2022-08-19T03:25:50;96472.41;;;25.11;57.23
52307;BME280;38249;48.920;12.882;2022-08-19T03:28:17;96466.63;;;25.02;57.39
52307;BME280;38249;48.920;12.882;2022-08-19T03:30:55;96467.25;;;25.20;57.36
52307;BME280;38249;48.920;12.882;2022-08-19T03:33:22;96458.94;;;24.86;58.03
52307;BME280;38249;48.920;12.882;2022-08-19T03:35:59;96453.94;;;25.19;57.34
52307;BME280;38249;48.920;12.882;2022-08-19T03:38:26;96449.78;;;25.00;57.27
52307;BME280;38249;48.920;12.882;2022-08-19T03:40:54;96457.41;;;25.27;57.36
52307;BME280;38249;48.920;12.882;2022-08-19T03:43:20;96461.38;;;25.18;57.31
52307;BME280;38249;48.920;12.882;2022-08-19T03:45:47;96462.91;;;25.23;57.10
52307;BME280;38249;48.920;12.882;2022-08-19T03:48:14;96468.00;;;25.24;57.01
52307;BME280;38249;48.920;12.882;2022-08-19T03:50:42;96466.78;;;25.29;57.29
52307;BME280;38249;48.920;12.882;2022-08-19T03:53:09;96482.47;;;25.29;57.47
52307;BME280;38249;48.920;12.882;2022-08-19T03:55:39;96478.75;;;25.50;57.02
52307;BME280;38249;48.920;12.882;2022-08-19T03:58:07;96483.91;;;25.44;57.03
52307;BME280;38249;48.920;12.882;2022-08-19T04:00:33;96489.94;;;25.28;57.21
52307;BME280;38249;48.920;12.882;2022-08-19T04:03:01;96501.69;;;25.29;56.91
52307;BME280;38249;48.920;12.882;2022-08-19T04:05:27;96510.28;;;25.31;57.42
52307;BME280;38249;48.920;12.882;2022-08-19T04:07:54;96521.66;;;25.29;57.33
52307;BME280;38249;48.920;12.882;2022-08-19T04:10:24;96520.84;;;25.32;57.16
52307;BME280;38249;48.920;12.882;2022-08-19T04:12:50;96525.94;;;25.34;57.11
52307;BME280;38249;48.920;12.882;2022-08-19T04:15:18;96523.06;;;25.48;57.30
52307;BME280;38249;48.920;12.882;2022-08-19T04:17:46;96529.09;;;25.29;57.28
52307;BME280;38249;48.920;12.882;2022-08-19T04:20:12;96527.94;;;25.26;57.35
52307;BME280;38249;48.920;12.882;2022-08-19T04:22:39;96524.03;;;25.23;57.54
52307;BME280;38249;48.920;12.882;2022-08-19T04:25:06;96516.97;;;25.30;57.63
52307;BME280;38249;48.920;12.882;2022-08-19T04:27:32;96516.16;;;25.25;58.04
52307;BME280;38249;48.920;12.882;2022-08-19T04:29:59;96520.47;;;25.27;58.19
52307;BME280;38249;48.920;12.882;2022-08-19T04:32:27;96529.78;;;25.40;57.95
52307;BME280;38249;48.920;12.882;2022-08-19T04:34:53;96521.66;;;25.25;58.02
52307;BME280;38249;48.920;12.882;2022-08-19T04:37:21;96528.31;;;25.32;57.99
52307;BME280;38249;48.920;12.882;2022-08-19T04:39:48;96527.13;;;25.33;58.13
52307;BME280;38249;48.920;12.882;2022-08-19T04:42:32;96540.81;;;25.36;57.88
52307;BME280;38249;48.920;12.882;2022-08-19T04:45:06;96541.13;;;25.46;57.64
52307;BME280;38249;48.920;12.882;2022-08-19T04:47:34;96539.19;;;25.39;57.76
52307;BME280;38249;48.920;12.882;2022-08-19T04:50:00;96539.78;;;25.12;58.22
52307;BME280;38249;48.920;12.882;2022-08-19T04:52:27;96525.31;;;25.12;58.23
52307;BME280;38249;48.920;12.882;2022-08-19T04:54:53;96528.03;;;25.15;58.40
52307;BME280;38249;48.920;12.882;2022-08-19T04:57:20;96536.25;;;25.15;58.21
52307;BME280;38249;48.920;12.882;2022-08-19T04:59:47;96553.53;;;25.09;58.23
52307;BME280;38249;48.920;12.882;2022-08-19T05:02:14;96557.50;;;25.04;58.57
52307;BME280;38249;48.920;12.882;2022-08-19T05:04:42;96555.00;;;25.20;58.76
52307;BME280;38249;48.920;12.882;2022-08-19T05:07:08;96554.34;;;25.05;58.67
52307;BME280;38249;48.920;12.882;2022-08-19T05:09:35;96550.84;;;25.05;58.52
52307;BME280;38249;48.920;12.882;2022-08-19T05:12:02;96554.81;;;24.97;58.92
52307;BME280;38249;48.920;12.882;2022-08-19T05:14:30;96557.19;;;24.91;58.84
52307;BME280;38249;48.920;12.882;2022-08-19T05:16:57;96558.00;;;24.84;59.23
52307;BME280;38249;48.920;12.882;2022-08-19T05:19:23;96554.84;;;24.89;58.91
52307;BME280;38249;48.920;12.882;2022-08-19T05:22:09;96564.44;;;25.16;58.55
52307;BME280;38249;48.920;12.882;2022-08-19T05:24:53;96563.84;;;24.94;58.83
52307;BME280;38249;48.920;12.882;2022-08-19T05:27:20;96553.25;;;24.96;58.53
52307;BME280;38249;48.920;12.882;2022-08-19T05:29:46;96551.97;;;25.07;58.19
52307;BME280;38249;48.920;12.882;2022-08-19T05:32:13;96562.13;;;25.11;58.66
52307;BME280;38249;48.920;12.882;2022-08-19T05:34:39;96560.22;;;25.04;58.64
52307;BME280;38249;48.920;12.882;2022-08-19T05:37:07;96560.16;;;25.11;58.72
52307;BME280;38249;48.920;12.882;2022-08-19T05:39:36;96560.47;;;25.24;58.33
52307;BME280;38249;48.920;12.882;2022-08-19T05:42:06;96564.41;;;25.19;58.62
52307;BME280;38249;48.920;12.882;2022-08-19T05:44:35;96569.50;;;25.24;58.47
52307;BME280;38249;48.920;12.882;2022-08-19T05:47:05;96566.84;;;25.10;58.60
52307;BME280;38249;48.920;12.882;2022-08-19T05:49:34;96557.97;;;24.88;59.10
52307;BME280;38249;48.920;12.882;2022-08-19T05:52:02;96559.59;;;24.85;59.22
52307;BME280;38249;48.920;12.882;2022-08-19T05:54:29;96558.84;;;24.70;58.98
52307;BME280;38249;48.920;12.882;2022-08-19T05:56:57;96567.81;;;24.82;59.02
52307;BME280;38249;48.920;12.882;2022-08-19T05:59:24;96557.69;;;24.72;59.33
52307;BME280;38249;48.920;12.882;2022-08-19T06:01:52;96563.53;;;24.81;59.13
52307;BME280;38249;48.920;12.882;2022-08-19T06:04:19;96558.09;;;24.70;59.05
52307;BME280;38249;48.920;12.882;2022-08-19T06:06:46;96562.31;;;24.82;59.03
52307;BME280;38249;48.920;12.882;2022-08-19T06:09:13;96557.66;;;24.79;58.94
52307;BME280;38249;48.920;12.882;2022-08-19T06:11:42;96550.53;;;24.88;58.87
52307;BME280;38249;48.920;12.882;2022-08-19T06:14:13;96548.94;;;24.91;58.86
52307;BME280;38249;48.920;12.882;2022-08-19T06:16:41;96535.69;;;24.86;58.94
52307;BME280;38249;48.920;12.882;2022-08-19T06:19:11;96531.81;;;24.76;58.89
52307;BME280;38249;48.920;12.882;2022-08-19T06:21:40;96533.78;;;24.79;58.85
52307;BME280;38249;48.920;12.882;2022-08-19T06:24:10;96531.78;;;24.80;58.98
52307;BME280;38249;48.920;12.882;2022-08-19T06:26:39;96516.50;;;24.86;58.72
52307;BME280;38249;48.920;12.882;2022-08-19T06:29:08;96515.59;;;25.03;58.22
52307;BME280;38249;48.920;12.882;2022-08-19T06:31:37;96526.41;;;25.21;58.24
52307;BME280;38249;48.920;12.882;2022-08-19T06:34:06;96536.97;;;25.23;58.10
52307;BME280;38249;48.920;12.882;2022-08-19T06:36:36;96536.28;;;25.57;57.59
52307;BME280;38249;48.920;12.882;2022-08-19T06:39:05;96526.00;;;25.68;57.40
52307;BME280;38249;48.920;12.882;2022-08-19T06:41:34;96525.06;;;25.82;57.48
52307;BME280;38249;48.920;12.882;2022-08-19T06:44:02;96526.25;;;25.81;57.45
52307;BME280;38249;48.920;12.882;2022-08-19T06:46:28;96520.28;;;25.90;57.16
52307;BME280;38249;48.920;12.882;2022-08-19T06:48:57;96524.31;;;26.16;56.63
52307;BME280;38249;48.920;12.882;2022-08-19T06:51:24;96527.59;;;26.04;56.13
52307;BME280;38249;48.920;12.882;2022-08-19T06:53:53;96523.16;;;26.13;55.80
52307;BME280;38249;48.920;12.882;2022-08-19T06:56:22;96509.78;;;26.15;55.66
52307;BME280;38249;48.920;12.882;2022-08-19T06:58:50;96505.16;;;26.09;56.01
52307;BME280;38249;48.920;12.882;2022-08-19T07:01:19;96503.47;;;26.19;55.85
52307;BME280;38249;48.920;12.882;2022-08-19T07:03:46;96518.44;;;26.18;55.47
52307;BME280;38249;48.920;12.882;2022-08-19T07:06:16;96516.34;;;26.25;55.00
52307;BME280;38249;48.920;12.882;2022-08-19T07:08:43;96518.53;;;26.07;55.44
52307;BME280;38249;48.920;12.882;2022-08-19T07:11:12;96526.00;;;26.06;55.46
52307;BME280;38249;48.920;12.882;2022-08-19T07:13:40;96537.91;;;25.92;55.75
52307;BME280;38249;48.920;12.882;2022-08-19T07:16:10;96528.22;;;25.80;56.11
52307;BME280;38249;48.920;12.882;2022-08-19T07:18:38;96529.50;;;25.72;56.18
52307;BME280;38249;48.920;12.882;2022-08-19T07:21:06;96528.31;;;25.70;56.36
52307;BME280;38249;48.920;12.882;2022-08-19T07:23:34;96534.56;;;25.74;56.16
52307;BME280;38249;48.920;12.882;2022-08-19T07:26:05;96532.53;;;25.82;55.85
52307;BME280;38249;48.920;12.882;2022-08-19T07:28:31;96541.78;;;25.60;56.18
52307;BME280;38249;48.920;12.882;2022-08-19T07:30:58;96549.19;;;25.60;56.27
52307;BME280;38249;48.920;12.882;2022-08-19T07:33:27;96556.38;;;25.47;56.47
52307;BME280;38249;48.920;12.882;2022-08-19T07:35:55;96557.63;;;25.38;56.56
52307;BME280;38249;48.920;12.882;2022-08-19T07:38:21;96570.25;;;25.25;57.20
52307;BME280;38249;48.920;12.882;2022-08-19T07:40:49;96562.63;;;25.51;56.93
52307;BME280;38249;48.920;12.882;2022-08-19T07:43:16;96563.13;;;25.38;56.86
52307;BME280;38249;48.920;12.882;2022-08-19T07:45:50;96574.50;;;25.37;57.23
52307;BME280;38249;48.920;12.882;2022-08-19T07:48:19;96576.06;;;25.38;56.81
52307;BME280;38249;48.920;12.882;2022-08-19T07:50:45;96580.41;;;25.35;56.89
52307;BME280;38249;48.920;12.882;2022-08-19T07:53:13;96581.53;;;25.41;56.90
52307;BME280;38249;48.920;12.882;2022-08-19T07:55:40;96581.09;;;25.47;56.77
52307;BME280;38249;48.920;12.882;2022-08-19T07:58:09;96583.25;;;25.66;56.51
52307;BME280;38249;48.920;12.882;2022-08-19T08:00:37;96583.31;;;25.63;56.34
52307;BME280;38249;48.920;12.882;2022-08-19T08:03:04;96576.66;;;25.60;56.31
52307;BME280;38249;48.920;12.882;2022-08-19T08:05:30;96578.53;;;25.67;55.99
52307;BME280;38249;48.920;12.882;2022-08-19T08:08:14;96574.19;;;25.73;55.98
52307;BME280;38249;48.920;12.882;2022-08-19T08:10:58;96572.13;;;25.84;55.57
52307;BME280;38249;48.920;12.882;2022-08-19T08:13:27;96571.19;;;26.02;55.28
52307;BME280;38249;48.920;12.882;2022-08-19T08:15:54;96565.72;;;25.98;55.04
52307;BME280;38249;48.920;12.882;2022-08-19T08:18:21;96551.03;;;26.12;55.06
52307;BME280;38249;48.920;12.882;2022-08-19T08:20:47;96552.88;;;26.26;55.28
52307;BME280;38249;48.920;12.882;2022-08-19T08:23:14;96554.28;;;26.38;54.85
52307;BME280;38249;48.920;12.882;2022-08-19T08:25:50;96543.81;;;26.56;54.74
52307;BME280;38249;48.920;12.882;2022-08-19T08:28:18;96550.81;;;26.64;54.58
52307;BME280;38249;48.920;12.882;2022-08-19T08:30:47;96544.63;;;26.84;54.52
52307;BME280;38249;48.920;12.882;2022-08-19T08:33:14;96534.91;;;26.79;54.54
52307;BME280;38249;48.920;12.882;2022-08-19T08:35:43;96527.31;;;26.87;54.42
52307;BME280;38249;48.920;12.882;2022-08-19T08:38:11;96513.28;;;27.05;54.11
52307;BME280;38249;48.920;12.882;2022-08-19T08:40:43;96519.59;;;27.29;53.43
52307;BME280;38249;48.920;12.882;2022-08-19T08:43:24;96509.53;;;27.42;53.37
52307;BME280;38249;48.920;12.882;2022-08-19T08:45:59;96514.28;;;27.42;52.96
52307;BME280;38249;48.920;12.882;2022-08-19T08:48:34;96514.56;;;27.48;53.16
52307;BME280;38249;48.920;12.882;2022-08-19T08:51:04;96514.53;;;27.51;52.40
52307;BME280;38249;48.920;12.882;2022-08-19T08:53:31;96516.97;;;27.46;52.48
52307;BME280;38249;48.920;12.882;2022-08-19T08:56:00;96530.06;;;27.61;51.88
52307;BME280;38249;48.920;12.882;2022-08-19T08:58:31;96532.47;;;27.59;51.60
52307;BME280;38249;48.920;12.882;2022-08-19T09:01:10;96533.53;;;27.66;51.27
52307;BME280;38249;48.920;12.882;2022-08-19T09:03:39;96534.25;;;27.70;51.25
52307;BME280;38249;48.920;12.882;2022-08-19T09:06:10;96528.81;;;28.10;50.80
52307;BME280;38249;48.920;12.882;2022-08-19T09:08:43;96525.06;;;28.77;49.08
52307;BME280;38249;48.920;12.882;2022-08-19T09:11:17;96537.72;;;29.89;47.78
52307;BME280;38249;48.920;12.882;2022-08-19T09:13:49;96545.09;;;30.77;45.47
52307;BME280;38249;48.920;12.882;2022-08-19T09:16:21;96552.03;;;30.43;45.12
52307;BME280;38249;48.920;12.882;2022-08-19T09:18:54;96550.44;;;30.84;45.22
52307;BME280;38249;48.920;12.882;2022-08-19T09:21:23;96560.38;;;31.46;42.72
52307;BME280;38249;48.920;12.882;2022-08-19T09:23:50;96566.75;;;32.03;40.96
52307;BME280;38249;48.920;12.882;2022-08-19T09:26:20;96562.84;;;32.13;40.80
52307;BME280;38249;48.920;12.882;2022-08-19T09:28:49;96564.59;;;31.85;41.34
52307;BME280;38249;48.920;12.882;2022-08-19T09:31:18;96559.09;;;31.72;42.04
52307;BME280;38249;48.920;12.882;2022-08-19T09:33:47;96549.13;;;31.75;41.27
52307;BME280;38249;48.920;12.882;2022-08-19T09:36:15;96554.47;;;31.56;41.23
52307;BME280;38249;48.920;12.882;2022-08-19T09:38:44;96550.84;;;31.21;41.91
52307;BME280;38249;48.920;12.882;2022-08-19T09:41:12;96559.50;;;30.84;41.92
52307;BME280;38249;48.920;12.882;2022-08-19T09:43:40;96554.97;;;30.35;43.27
52307;BME280;38249;48.920;12.882;2022-08-19T09:46:08;96565.66;;;30.21;43.08
52307;BME280;38249;48.920;12.882;2022-08-19T09:48:35;96570.31;;;29.94;43.84
52307;BME280;38249;48.920;12.882;2022-08-19T09:51:05;96572.16;;;29.85;43.82
52307;BME280;38249;48.920;12.882;2022-08-19T09:53:33;96570.22;;;29.36;44.56
52307;BME280;38249;48.920;12.882;2022-08-19T09:55:59;96564.25;;;29.54;44.57
52307;BME280;38249;48.920;12.882;2022-08-19T09:58:26;96572.09;;;29.55;44.12
52307;BME280;38249;48.920;12.882;2022-08-19T10:00:54;96577.44;;;29.30;44.04
52307;BME280;38249;48.920;12.882;2022-08-19T10:03:22;96563.91;;;29.35;44.38
52307;BME280;38249;48.920;12.882;2022-08-19T10:05:49;96564.69;;;29.36;44.80
52307;BME280;38249;48.920;12.882;2022-08-19T10:08:17;96562.50;;;29.60;44.71
52307;BME280;38249;48.920;12.882;2022-08-19T10:10:45;96568.81;;;29.60;44.07
52307;BME280;38249;48.920;12.882;2022-08-19T10:13:13;96571.84;;;29.66;44.35
52307;BME280;38249;48.920;12.882;2022-08-19T10:15:40;96568.44;;;29.75;44.33
52307;BME280;38249;48.920;12.882;2022-08-19T10:18:07;96569.56;;;29.94;43.84
52307;BME280;38249;48.920;12.882;2022-08-19T10:20:34;96567.50;;;29.82;43.23
52307;BME280;38249;48.920;12.882;2022-08-19T10:23:02;96551.00;;;29.94;42.89
52307;BME280;38249;48.920;12.882;2022-08-19T10:25:32;96559.72;;;30.64;42.81
52307;BME280;38249;48.920;12.882;2022-08-19T10:28:00;96548.44;;;31.10;41.13
52307;BME280;38249;48.920;12.882;2022-08-19T10:30:26;96555.88;;;31.13;40.86
52307;BME280;38249;48.920;12.882;2022-08-19T10:32:53;96564.19;;;31.13;40.75
52307;BME280;38249;48.920;12.882;2022-08-19T10:35:20;96558.97;;;31.02;41.09
52307;BME280;38249;48.920;12.882;2022-08-19T10:37:46;96564.94;;;31.01;41.72
52307;BME280;38249;48.920;12.882;2022-08-19T10:40:13;96562.28;;;31.10;41.31
52307;BME280;38249;48.920;12.882;2022-08-19T10:42:41;96564.25;;;31.22;41.26
52307;BME280;38249;48.920;12.882;2022-08-19T10:45:09;96565.63;;;31.05;41.56
52307;BME280;38249;48.920;12.882;2022-08-19T10:47:36;96556.97;;;30.90;41.84
52307;BME280;38249;48.920;12.882;2022-08-19T10:50:04;96549.72;;;30.67;42.31
52307;BME280;38249;48.920;12.882;2022-08-19T10:52:49;96556.47;;;30.53;42.26
52307;BME280;38249;48.920;12.882;2022-08-19T10:55:18;96552.16;;;30.65;42.20
52307;BME280;38249;48.920;12.882;2022-08-19T10:58:09;96558.16;;;30.89;41.29
52307;BME280;38249;48.920;12.882;2022-08-19T11:00:36;96551.19;;;30.71;41.64
52307;BME280;38249;48.920;12.882;2022-08-19T11:03:03;96549.53;;;30.87;42.06
52307;BME280;38249;48.920;12.882;2022-08-19T11:05:29;96544.97;;;31.32;41.21
52307;BME280;38249;48.920;12.882;2022-08-19T11:07:56;96544.22;;;32.14;40.33
52307;BME280;38249;48.920;12.882;2022-08-19T11:10:22;96542.84;;;34.00;36.76
52307;BME280;38249;48.920;12.882;2022-08-19T11:12:49;96544.28;;;36.88;31.92
52307;BME280;38249;48.920;12.882;2022-08-19T11:15:19;96557.34;;;38.62;29.57
52307;BME280;38249;48.920;12.882;2022-08-19T11:17:46;96549.94;;;38.12;29.00
52307;BME280;38249;48.920;12.882;2022-08-19T11:20:14;96539.66;;;37.36;30.57
52307;BME280;38249;48.920;12.882;2022-08-19T11:22:41;96533.16;;;36.74;30.81
52307;BME280;38249;48.920;12.882;2022-08-19T11:25:09;96516.38;;;36.44;31.96
52307;BME280;38249;48.920;12.882;2022-08-19T11:27:38;96505.00;;;36.77;32.08
52307;BME280;38249;48.920;12.882;2022-08-19T11:30:08;96520.13;;;39.91;28.49
52307;BME280;38249;48.920;12.882;2022-08-19T11:32:36;96515.94;;;40.41;25.71
52307;BME280;38249;48.920;12.882;2022-08-19T11:35:02;96520.78;;;39.09;27.67
52307;BME280;38249;48.920;12.882;2022-08-19T11:37:30;96527.41;;;40.94;26.02
52307;BME280;38249;48.920;12.882;2022-08-19T11:40:02;96523.81;;;41.91;24.69
52307;BME280;38249;48.920;12.882;2022-08-19T11:42:29;96517.38;;;42.74;23.23
52307;BME280;38249;48.920;12.882;2022-08-19T11:45:09;96512.38;;;45.01;20.89
52307;BME280;38249;48.920;12.882;2022-08-19T11:47:39;96512.75;;;46.75;18.80
52307;BME280;38249;48.920;12.882;2022-08-19T11:50:06;96507.38;;;45.20;19.73
52307;BME280;38249;48.920;12.882;2022-08-19T11:52:32;96503.09;;;42.97;21.72
52307;BME280;38249;48.920;12.882;2022-08-19T11:54:59;96494.19;;;41.09;23.54
52307;BME280;38249;48.920;12.882;2022-08-19T11:57:25;96482.63;;;39.83;25.05
52307;BME280;38249;48.920;12.882;2022-08-19T11:59:52;96478.09;;;38.87;26.03
52307;BME280;38249;48.920;12.882;2022-08-19T12:02:18;96477.41;;;38.08;27.14
52307;BME280;38249;48.920;12.882;2022-08-19T12:04:48;96470.75;;;37.33;28.08
52307;BME280;38249;48.920;12.882;2022-08-19T12:07:14;96471.34;;;36.36;29.61
52307;BME280;38249;48.920;12.882;2022-08-19T12:09:41;96477.09;;;35.88;30.60
52307;BME280;38249;48.920;12.882;2022-08-19T12:12:08;96484.22;;;36.19;29.61
52307;BME280;38249;48.920;12.882;2022-08-19T12:14:35;96466.13;;;35.99;29.80
52307;BME280;38249;48.920;12.882;2022-08-19T12:17:02;96465.97;;;35.15;30.93
52307;BME280;38249;48.920;12.882;2022-08-19T12:19:30;96465.03;;;34.51;31.93
52307;BME280;38249;48.920;12.882;2022-08-19T12:22:00;96471.34;;;34.61;32.48
52307;BME280;38249;48.920;12.882;2022-08-19T12:24:30;96468.88;;;35.30;31.01
52307;BME280;38249;48.920;12.882;2022-08-19T12:26:57;96476.88;;;35.76;30.92
52307;BME280;38249;48.920;12.882;2022-08-19T12:29:24;96473.88;;;36.84;29.04
52307;BME280;38249;48.920;12.882;2022-08-19T12:31:54;96482.38;;;39.20;26.43
52307;BME280;38249;48.920;12.882;2022-08-19T12:34:27;96474.78;;;40.04;25.55
52307;BME280;38249;48.920;12.882;2022-08-19T12:36:55;96481.31;;;39.12;26.60
52307;BME280;38249;48.920;12.882;2022-08-19T12:39:23;96482.84;;;38.44;26.66
52307;BME280;38249;48.920;12.882;2022-08-19T12:41:50;96487.25;;;37.31;27.71
52307;BME280;38249;48.920;12.882;2022-08-19T12:44:18;96482.13;;;36.43;28.65
52307;BME280;38249;48.920;12.882;2022-08-19T12:46:44;96465.25;;;35.78;29.88
52307;BME280;38249;48.920;12.882;2022-08-19T12:49:11;96463.28;;;35.69;30.46
52307;BME280;38249;48.920;12.882;2022-08-19T12:51:38;96461.13;;;35.64;30.68
52307;BME280;38249;48.920;12.882;2022-08-19T12:54:04;96459.59;;;35.87;31.24
52307;BME280;38249;48.920;12.882;2022-08-19T12:56:33;96457.88;;;36.35;30.39